sensor_id;sensor_type;location;lat;lon;timestamp;pressure;altitude;pressure_sealevel;temperature;humidity
76297;BME280;65104;52.994;6.552;2023-04-12T00:00:14;100513.88;;;7.32;73.10
76297;BME280;65104;52.994;6.552;2023-04-12T00:02:39;100508.88;;;7.36;73.41
76297;BME280;65104;52.994;6.552;2023-04-12T00:05:06;100491.75;;;7.34;73.26
76297;BME280;65104;52.994;6.552;2023-04-12T00:07:33;100490.25;;;7.40;73.17
76297;BME280;65104;52.994;6.552;2023-04-12T00:09:59;100476.66;;;7.41;74.03
76297;BME280;65104;52.994;6.552;2023-04-12T00:12:24;100476.63;;;7.40;73.47
76297;BME280;65104;52.994;6.552;2023-04-12T00:14:50;100478.34;;;7.41;73.97
76297;BME280;65104;52.994;6.552;2023-04-12T00:17:15;100466.44;;;7.41;73.83
76297;BME280;65104;52.994;6.552;2023-04-12T00:19:40;100469.22;;;7.50;74.05
76297;BME280;65104;52.994;6.552;2023-04-12T00:22:10;100469.19;;;7.49;73.43
76297;BME280;65104;52.994;6.552;2023-04-12T00:24:37;100465.88;;;7.53;74.39
76297;BME280;65104;52.994;6.552;2023-04-12T00:27:03;100456.50;;;7.53;73.43
76297;BME280;65104;52.994;6.552;2023-04-12T00:29:30;100454.81;;;7.54;73.56
76297;BME280;65104;52.994;6.552;2023-04-12T00:31:56;100431.84;;;7.54;74.26
76297;BME280;65104;52.994;6.552;2023-04-12T00:34:21;100431.84;;;7.54;73.76
76297;BME280;65104;52.994;6.552;2023-04-12T00:36:47;100440.50;;;7.59;73.53
76297;BME280;65104;52.994;6.552;2023-04-12T00:39:12;100426.03;;;7.61;74.50
76297;BME280;65104;52.994;6.552;2023-04-12T00:41:37;100424.25;;;7.57;73.95
76297;BME280;65104;52.994;6.552;2023-04-12T00:44:03;100426.88;;;7.60;73.85
76297;BME280;65104;52.994;6.552;2023-04-12T00:46:29;100427.75;;;7.62;74.22
76297;BME280;65104;52.994;6.552;2023-04-12T00:48:56;100414.13;;;7.62;73.89
76297;BME280;65104;52.994;6.552;2023-04-12T00:51:22;100409.84;;;7.61;74.25
76297;BME280;65104;52.994;6.552;2023-04-12T00:53:52;100406.41;;;7.59;74.78
76297;BME280;65104;52.994;6.552;2023-04-12T00:56:21;100394.50;;;7.61;74.08
76297;BME280;65104;52.994;6.552;2023-04-12T00:58:47;100395.38;;;7.60;74.08
76297;BME280;65104;52.994;6.552;2023-04-12T01:01:13;100398.84;;;7.63;74.43
76297;BME280;65104;52.994;6.552;2023-04-12T01:03:41;100387.78;;;7.64;74.59
76297;BME280;65104;52.994;6.552;2023-04-12T01:17:10;100357.53;;;7.82;76.19
76297;BME280;65104;52.994;6.552;2023-04-12T01:19:51;100353.28;;;7.83;75.80
76297;BME280;65104;52.994;6.552;2023-04-12T01:27:40;100337.22;;;7.88;76.73
76297;BME280;65104;52.994;6.552;2023-04-12T01:30:11;100325.28;;;7.89;76.75
76297;BME280;65104;52.994;6.552;2023-04-12T01:32:38;100319.38;;;7.91;76.74
76297;BME280;65104;52.994;6.552;2023-04-12T01:35:05;100315.88;;;7.86;77.88
76297;BME280;65104;52.994;6.552;2023-04-12T01:37:33;100308.25;;;7.89;77.69
76297;BME280;65104;52.994;6.552;2023-04-12T01:40:00;100300.50;;;7.85;78.14
76297;BME280;65104;52.994;6.552;2023-04-12T01:42:25;100302.16;;;7.83;78.35
76297;BME280;65104;52.994;6.552;2023-04-12T01:44:50;100306.50;;;7.85;79.73
76297;BME280;65104;52.994;6.552;2023-04-12T01:47:16;100293.03;;;7.94;79.23
76297;BME280;65104;52.994;6.552;2023-04-12T01:50:10;100289.66;;;7.97;79.66
76297;BME280;65104;52.994;6.552;2023-04-12T01:52:40;100281.94;;;7.94;80.28
76297;BME280;65104;52.994;6.552;2023-04-12T01:55:06;100266.59;;;7.94;81.09
76297;BME280;65104;52.994;6.552;2023-04-12T01:57:33;100270.88;;;7.95;81.75
76297;BME280;65104;52.994;6.552;2023-04-12T02:00:01;100256.25;;;7.87;82.02
76297;BME280;65104;52.994;6.552;2023-04-12T02:02:30;100259.69;;;7.89;82.39
76297;BME280;65104;52.994;6.552;2023-04-12T02:04:57;100243.41;;;7.84;83.23
76297;BME280;65104;52.994;6.552;2023-04-12T02:07:23;100240.91;;;7.86;83.56
76297;BME280;65104;52.994;6.552;2023-04-12T02:09:49;100232.31;;;7.84;84.46
76297;BME280;65104;52.994;6.552;2023-04-12T02:12:15;100220.31;;;7.80;84.32
76297;BME280;65104;52.994;6.552;2023-04-12T02:14:40;100210.91;;;7.79;85.20
76297;BME280;65104;52.994;6.552;2023-04-12T02:17:05;100214.31;;;7.79;85.16
76297;BME280;65104;52.994;6.552;2023-04-12T02:19:32;100216.06;;;7.80;85.45
76297;BME280;65104;52.994;6.552;2023-04-12T02:21:58;100210.06;;;7.78;86.06
76297;BME280;65104;52.994;6.552;2023-04-12T02:24:23;100208.34;;;7.77;85.87
76297;BME280;65104;52.994;6.552;2023-04-12T02:26:48;100198.13;;;7.77;86.45
76297;BME280;65104;52.994;6.552;2023-04-12T02:29:14;100195.50;;;7.74;86.09
76297;BME280;65104;52.994;6.552;2023-04-12T02:31:39;100189.50;;;7.72;87.31
76297;BME280;65104;52.994;6.552;2023-04-12T02:34:05;100181.06;;;7.76;87.00
76297;BME280;65104;52.994;6.552;2023-04-12T02:36:31;100181.06;;;7.76;87.78
76297;BME280;65104;52.994;6.552;2023-04-12T02:38:56;100161.53;;;7.78;87.28
76297;BME280;65104;52.994;6.552;2023-04-12T02:41:23;100160.56;;;7.73;87.94
76297;BME280;65104;52.994;6.552;2023-04-12T02:43:49;100138.38;;;7.72;88.01
76297;BME280;65104;52.994;6.552;2023-04-12T02:46:18;100140.00;;;7.67;89.21
76297;BME280;65104;52.994;6.552;2023-04-12T02:48:44;100139.19;;;7.68;88.40
76297;BME280;65104;52.994;6.552;2023-04-12T02:51:10;100133.97;;;7.64;88.21
76297;BME280;65104;52.994;6.552;2023-04-12T02:53:35;100122.03;;;7.64;88.60
76297;BME280;65104;52.994;6.552;2023-04-12T02:56:03;100118.59;;;7.62;88.95
76297;BME280;65104;52.994;6.552;2023-04-12T02:58:29;100107.50;;;7.60;89.42
76297;BME280;65104;52.994;6.552;2023-04-12T03:00:55;100107.50;;;7.62;89.74
76297;BME280;65104;52.994;6.552;2023-04-12T03:03:21;100101.53;;;7.61;89.24
76297;BME280;65104;52.994;6.552;2023-04-12T03:05:46;100099.94;;;7.66;89.29
76297;BME280;65104;52.994;6.552;2023-04-12T03:08:15;100090.56;;;7.65;88.94
76297;BME280;65104;52.994;6.552;2023-04-12T03:10:40;100086.25;;;7.63;89.76
76297;BME280;65104;52.994;6.552;2023-04-12T03:13:05;100077.81;;;7.67;88.84
76297;BME280;65104;52.994;6.552;2023-04-12T03:15:31;100074.41;;;7.66;89.30
76297;BME280;65104;52.994;6.552;2023-04-12T03:17:56;100064.22;;;7.68;89.39
76297;BME280;65104;52.994;6.552;2023-04-12T03:20:22;100057.41;;;7.70;87.92
76297;BME280;65104;52.994;6.552;2023-04-12T03:22:52;100056.56;;;7.69;88.77
76297;BME280;65104;52.994;6.552;2023-04-12T03:25:17;100056.56;;;7.69;88.23
76297;BME280;65104;52.994;6.552;2023-04-12T03:27:43;100047.22;;;7.71;87.61
76297;BME280;65104;52.994;6.552;2023-04-12T03:30:09;100029.28;;;7.68;87.79
76297;BME280;65104;52.994;6.552;2023-04-12T03:32:38;100037.88;;;7.73;87.96
76297;BME280;65104;52.994;6.552;2023-04-12T03:35:04;100022.56;;;7.73;87.72
76297;BME280;65104;52.994;6.552;2023-04-12T03:37:32;100028.50;;;7.72;87.35
76297;BME280;65104;52.994;6.552;2023-04-12T03:39:57;100022.66;;;7.79;87.82
76297;BME280;65104;52.994;6.552;2023-04-12T03:42:22;100012.44;;;7.79;86.87
76297;BME280;65104;52.994;6.552;2023-04-12T03:44:48;100009.00;;;7.77;87.13
76297;BME280;65104;52.994;6.552;2023-04-12T03:47:13;99988.44;;;7.71;87.64
76297;BME280;65104;52.994;6.552;2023-04-12T03:49:39;99992.69;;;7.69;87.65
76297;BME280;65104;52.994;6.552;2023-04-12T03:52:05;99979.13;;;7.73;86.76
76297;BME280;65104;52.994;6.552;2023-04-12T03:54:31;99961.22;;;7.73;87.44
76297;BME280;65104;52.994;6.552;2023-04-12T03:56:57;99963.00;;;7.79;86.99
76297;BME280;65104;52.994;6.552;2023-04-12T03:59:22;99952.72;;;7.74;88.39
76297;BME280;65104;52.994;6.552;2023-04-12T04:01:48;99949.28;;;7.72;87.55
76297;BME280;65104;52.994;6.552;2023-04-12T04:04:13;99946.66;;;7.68;88.19
76297;BME280;65104;52.994;6.552;2023-04-12T04:06:38;99935.63;;;7.69;88.00
76297;BME280;65104;52.994;6.552;2023-04-12T04:09:04;99946.63;;;7.66;88.44
76297;BME280;65104;52.994;6.552;2023-04-12T04:11:30;99944.09;;;7.66;88.23
76297;BME280;65104;52.994;6.552;2023-04-12T04:13:56;99934.63;;;7.62;89.60
76297;BME280;65104;52.994;6.552;2023-04-12T04:16:21;99938.91;;;7.63;89.79
76297;BME280;65104;52.994;6.552;2023-04-12T04:18:46;99937.16;;;7.59;89.72
76297;BME280;65104;52.994;6.552;2023-04-12T04:21:12;99937.91;;;7.53;90.99
76297;BME280;65104;52.994;6.552;2023-04-12T04:23:38;99933.56;;;7.48;90.59
76297;BME280;65104;52.994;6.552;2023-04-12T04:26:05;99926.72;;;7.47;90.71
76297;BME280;65104;52.994;6.552;2023-04-12T04:28:34;99927.63;;;7.49;92.49
76297;BME280;65104;52.994;6.552;2023-04-12T04:31:01;99920.69;;;7.43;91.66
76297;BME280;65104;52.994;6.552;2023-04-12T04:33:31;99913.88;;;7.41;93.56
76297;BME280;65104;52.994;6.552;2023-04-12T04:35:56;99911.16;;;7.32;93.77
76297;BME280;65104;52.994;6.552;2023-04-12T04:38:22;99917.13;;;7.34;94.01
76297;BME280;65104;52.994;6.552;2023-04-12T04:40:50;99918.72;;;7.27;94.49
76297;BME280;65104;52.994;6.552;2023-04-12T04:43:19;99920.44;;;7.27;95.41
76297;BME280;65104;52.994;6.552;2023-04-12T04:45:45;99905.84;;;7.20;94.72
76297;BME280;65104;52.994;6.552;2023-04-12T04:48:13;99912.66;;;7.21;95.58
76297;BME280;65104;52.994;6.552;2023-04-12T04:50:38;99910.03;;;7.16;96.54
76297;BME280;65104;52.994;6.552;2023-04-12T04:53:04;99905.72;;;7.12;96.71
76297;BME280;65104;52.994;6.552;2023-04-12T04:55:29;99898.91;;;7.12;97.44
76297;BME280;65104;52.994;6.552;2023-04-12T04:57:55;99899.72;;;7.10;97.32
76297;BME280;65104;52.994;6.552;2023-04-12T05:00:22;99892.84;;;7.07;97.82
76297;BME280;65104;52.994;6.552;2023-04-12T05:02:50;99885.19;;;7.07;97.99
76297;BME280;65104;52.994;6.552;2023-04-12T05:05:16;99881.75;;;7.04;98.40
76297;BME280;65104;52.994;6.552;2023-04-12T05:07:42;99878.25;;;7.00;98.82
76297;BME280;65104;52.994;6.552;2023-04-12T05:10:08;99865.50;;;7.00;99.26
76297;BME280;65104;52.994;6.552;2023-04-12T05:12:34;99868.88;;;6.99;99.29
76297;BME280;65104;52.994;6.552;2023-04-12T05:15:00;99864.63;;;6.98;98.92
76297;BME280;65104;52.994;6.552;2023-04-12T05:17:26;99868.88;;;6.98;99.42
76297;BME280;65104;52.994;6.552;2023-04-12T05:19:51;99860.34;;;6.96;99.56
76297;BME280;65104;52.994;6.552;2023-04-12T05:22:17;99858.63;;;6.95;100.00
76297;BME280;65104;52.994;6.552;2023-04-12T05:24:45;99856.03;;;6.93;99.82
76297;BME280;65104;52.994;6.552;2023-04-12T05:27:10;99855.22;;;6.96;100.00
76297;BME280;65104;52.994;6.552;2023-04-12T05:29:36;99859.44;;;6.94;100.00
76297;BME280;65104;52.994;6.552;2023-04-12T05:32:01;99851.78;;;6.94;100.00
76297;BME280;65104;52.994;6.552;2023-04-12T05:34:26;99845.88;;;6.96;100.00
76297;BME280;65104;52.994;6.552;2023-04-12T05:36:52;99843.34;;;6.96;100.00
76297;BME280;65104;52.994;6.552;2023-04-12T05:39:17;99829.66;;;6.93;100.00
76297;BME280;65104;52.994;6.552;2023-04-12T05:41:43;99822.78;;;6.89;100.00
76297;BME280;65104;52.994;6.552;2023-04-12T05:44:08;99827.03;;;6.88;100.00
76297;BME280;65104;52.994;6.552;2023-04-12T05:46:33;99819.38;;;6.88;100.00
76297;BME280;65104;52.994;6.552;2023-04-12T05:48:59;99821.94;;;6.90;100.00
76297;BME280;65104;52.994;6.552;2023-04-12T05:51:24;99823.63;;;6.89;100.00
76297;BME280;65104;52.994;6.552;2023-04-12T05:53:50;99817.69;;;6.90;100.00
76297;BME280;65104;52.994;6.552;2023-04-12T05:56:15;99810.03;;;6.90;100.00
76297;BME280;65104;52.994;6.552;2023-04-12T05:58:41;99810.09;;;6.93;100.00
76297;BME280;65104;52.994;6.552;2023-04-12T06:01:06;99816.91;;;6.94;100.00
76297;BME280;65104;52.994;6.552;2023-04-12T06:03:32;99815.25;;;6.96;100.00
76297;BME280;65104;52.994;6.552;2023-04-12T06:05:57;99810.16;;;6.96;100.00
76297;BME280;65104;52.994;6.552;2023-04-12T06:08:22;99806.78;;;6.97;100.00
76297;BME280;65104;52.994;6.552;2023-04-12T06:10:48;99810.13;;;6.95;100.00
76297;BME280;65104;52.994;6.552;2023-04-12T06:13:14;99794.84;;;6.96;100.00
76297;BME280;65104;52.994;6.552;2023-04-12T06:15:39;99805.06;;;6.96;100.00
76297;BME280;65104;52.994;6.552;2023-04-12T06:18:06;99790.59;;;6.98;100.00
76297;BME280;65104;52.994;6.552;2023-04-12T06:20:31;99783.81;;;6.97;100.00
76297;BME280;65104;52.994;6.552;2023-04-12T06:22:57;99784.66;;;6.99;100.00
76297;BME280;65104;52.994;6.552;2023-04-12T06:25:22;99784.63;;;6.96;100.00
76297;BME280;65104;52.994;6.552;2023-04-12T06:27:48;99779.53;;;6.96;100.00
76297;BME280;65104;52.994;6.552;2023-04-12T06:30:13;99785.50;;;6.97;100.00
76297;BME280;65104;52.994;6.552;2023-04-12T06:32:39;99774.44;;;6.96;100.00
76297;BME280;65104;52.994;6.552;2023-04-12T06:35:04;99774.38;;;6.93;100.00
76297;BME280;65104;52.994;6.552;2023-04-12T06:37:30;99771.78;;;6.92;100.00
76297;BME280;65104;52.994;6.552;2023-04-12T06:39:55;99753.94;;;6.93;100.00
76297;BME280;65104;52.994;6.552;2023-04-12T06:42:21;99762.47;;;6.94;100.00
76297;BME280;65104;52.994;6.552;2023-04-12T06:44:46;99754.88;;;6.98;100.00
76297;BME280;65104;52.994;6.552;2023-04-12T06:47:11;99755.81;;;7.03;100.00
76297;BME280;65104;52.994;6.552;2023-04-12T06:49:37;99756.59;;;6.99;100.00
76297;BME280;65104;52.994;6.552;2023-04-12T06:52:03;99752.28;;;6.95;100.00
76297;BME280;65104;52.994;6.552;2023-04-12T06:54:28;99756.59;;;6.99;100.00
76297;BME280;65104;52.994;6.552;2023-04-12T06:56:54;99751.47;;;6.99;100.00
76297;BME280;65104;52.994;6.552;2023-04-12T06:59:21;99742.09;;;6.98;100.00
76297;BME280;65104;52.994;6.552;2023-04-12T07:01:46;99748.91;;;6.96;100.00
76297;BME280;65104;52.994;6.552;2023-04-12T07:04:12;99737.00;;;6.98;100.00
76297;BME280;65104;52.994;6.552;2023-04-12T07:06:37;99740.50;;;7.03;100.00
76297;BME280;65104;52.994;6.552;2023-04-12T07:09:03;99743.91;;;7.04;100.00
76297;BME280;65104;52.994;6.552;2023-04-12T07:11:28;99740.44;;;7.00;100.00
76297;BME280;65104;52.994;6.552;2023-04-12T07:13:55;99746.38;;;6.98;100.00
76297;BME280;65104;52.994;6.552;2023-04-12T07:16:23;99731.91;;;6.97;100.00
76297;BME280;65104;52.994;6.552;2023-04-12T07:18:48;99715.78;;;7.01;100.00
76297;BME280;65104;52.994;6.552;2023-04-12T07:21:14;99731.19;;;7.05;100.00
76297;BME280;65104;52.994;6.552;2023-04-12T07:23:41;99719.25;;;7.04;100.00
76297;BME280;65104;52.994;6.552;2023-04-12T07:26:07;99727.75;;;7.03;100.00
76297;BME280;65104;52.994;6.552;2023-04-12T07:28:32;99720.94;;;7.04;100.00
76297;BME280;65104;52.994;6.552;2023-04-12T07:30:59;99707.34;;;7.05;100.00
76297;BME280;65104;52.994;6.552;2023-04-12T07:33:25;99705.72;;;7.10;100.00
76297;BME280;65104;52.994;6.552;2023-04-12T07:35:50;99705.63;;;7.04;100.00
76297;BME280;65104;52.994;6.552;2023-04-12T07:38:16;99701.41;;;7.07;100.00
76297;BME280;65104;52.994;6.552;2023-04-12T07:40:41;99709.94;;;7.09;100.00
76297;BME280;65104;52.994;6.552;2023-04-12T07:43:06;99706.66;;;7.16;100.00
76297;BME280;65104;52.994;6.552;2023-04-12T07:45:35;99699.00;;;7.15;100.00
76297;BME280;65104;52.994;6.552;2023-04-12T07:48:02;99696.41;;;7.13;100.00
76297;BME280;65104;52.994;6.552;2023-04-12T07:50:28;99693.03;;;7.18;100.00
76297;BME280;65104;52.994;6.552;2023-04-12T07:52:57;99691.31;;;7.13;100.00
76297;BME280;65104;52.994;6.552;2023-04-12T07:55:22;99688.81;;;7.18;100.00
76297;BME280;65104;52.994;6.552;2023-04-12T07:57:48;99693.00;;;7.16;100.00
76297;BME280;65104;52.994;6.552;2023-04-12T08:00:13;99693.03;;;7.14;100.00
76297;BME280;65104;52.994;6.552;2023-04-12T08:02:40;99685.38;;;7.14;100.00
76297;BME280;65104;52.994;6.552;2023-04-12T08:05:06;99678.63;;;7.21;100.00
76297;BME280;65104;52.994;6.552;2023-04-12T08:07:31;99677.84;;;7.24;100.00
76297;BME280;65104;52.994;6.552;2023-04-12T08:09:57;99683.81;;;7.24;100.00
76297;BME280;65104;52.994;6.552;2023-04-12T08:12:22;99687.31;;;7.32;100.00
76297;BME280;65104;52.994;6.552;2023-04-12T08:14:48;99676.31;;;7.38;100.00
76297;BME280;65104;52.994;6.552;2023-04-12T08:17:13;99677.13;;;7.37;100.00
76297;BME280;65104;52.994;6.552;2023-04-12T08:19:39;99680.59;;;7.40;100.00
76297;BME280;65104;52.994;6.552;2023-04-12T08:22:05;99679.75;;;7.43;100.00
76297;BME280;65104;52.994;6.552;2023-04-12T08:24:32;99679.75;;;7.43;100.00
76297;BME280;65104;52.994;6.552;2023-04-12T08:26:57;99680.59;;;7.40;100.00
76297;BME280;65104;52.994;6.552;2023-04-12T08:29:23;99687.31;;;7.35;100.00
76297;BME280;65104;52.994;6.552;2023-04-12T08:31:49;99689.06;;;7.38;100.00
76297;BME280;65104;52.994;6.552;2023-04-12T08:34:14;99690.03;;;7.46;100.00
76297;BME280;65104;52.994;6.552;2023-04-12T08:36:40;99690.03;;;7.46;100.00
76297;BME280;65104;52.994;6.552;2023-04-12T08:39:05;99696.03;;;7.48;100.00
76297;BME280;65104;52.994;6.552;2023-04-12T08:41:32;99686.69;;;7.53;100.00
76297;BME280;65104;52.994;6.552;2023-04-12T08:43:58;99683.31;;;7.54;100.00
76297;BME280;65104;52.994;6.552;2023-04-12T08:46:25;99681.66;;;7.58;100.00
76297;BME280;65104;52.994;6.552;2023-04-12T08:48:51;99691.91;;;7.61;100.00
76297;BME280;65104;52.994;6.552;2023-04-12T08:51:21;99687.72;;;7.66;100.00
76297;BME280;65104;52.994;6.552;2023-04-12T08:53:47;99680.94;;;7.71;100.00
76297;BME280;65104;52.994;6.552;2023-04-12T08:56:14;99684.50;;;7.82;100.00
76297;BME280;65104;52.994;6.552;2023-04-12T08:58:40;99678.56;;;7.84;100.00
76297;BME280;65104;52.994;6.552;2023-04-12T09:01:16;99672.66;;;7.87;100.00
76297;BME280;65104;52.994;6.552;2023-04-12T09:03:42;99684.63;;;7.93;100.00
76297;BME280;65104;52.994;6.552;2023-04-12T09:06:08;99682.06;;;7.93;100.00
76297;BME280;65104;52.994;6.552;2023-04-12T09:08:34;99677.88;;;7.99;100.00
76297;BME280;65104;52.994;6.552;2023-04-12T09:10:59;99682.16;;;8.02;100.00
76297;BME280;65104;52.994;6.552;2023-04-12T09:13:32;99690.69;;;8.05;100.00
76297;BME280;65104;52.994;6.552;2023-04-12T09:15:58;99687.41;;;8.17;100.00
76297;BME280;65104;52.994;6.552;2023-04-12T09:18:24;99677.31;;;8.29;100.00
76297;BME280;65104;52.994;6.552;2023-04-12T09:21:05;99679.03;;;8.30;100.00
76297;BME280;65104;52.994;6.552;2023-04-12T09:23:31;99673.00;;;8.25;100.00
76297;BME280;65104;52.994;6.552;2023-04-12T09:25:56;99666.38;;;8.39;100.00
76297;BME280;65104;52.994;6.552;2023-04-12T09:28:26;99657.09;;;8.53;100.00
76297;BME280;65104;52.994;6.552;2023-04-12T09:30:52;99649.56;;;8.73;100.00
76297;BME280;65104;52.994;6.552;2023-04-12T09:33:31;99653.16;;;8.99;100.00
76297;BME280;65104;52.994;6.552;2023-04-12T09:36:01;99648.97;;;9.12;100.00
76297;BME280;65104;52.994;6.552;2023-04-12T09:38:29;99643.94;;;9.33;100.00
76297;BME280;65104;52.994;6.552;2023-04-12T09:40:54;99652.59;;;9.63;100.00
76297;BME280;65104;52.994;6.552;2023-04-12T09:43:35;99653.47;;;9.71;97.73
76297;BME280;65104;52.994;6.552;2023-04-12T09:46:11;99651.81;;;9.82;97.76
76297;BME280;65104;52.994;6.552;2023-04-12T09:48:41;99652.66;;;9.81;96.33
76297;BME280;65104;52.994;6.552;2023-04-12T09:51:12;99643.22;;;9.72;97.27
76297;BME280;65104;52.994;6.552;2023-04-12T09:53:40;99635.53;;;9.69;96.79
76297;BME280;65104;52.994;6.552;2023-04-12T09:56:10;99633.88;;;9.88;97.27
76297;BME280;65104;52.994;6.552;2023-04-12T09:58:37;99643.28;;;9.91;96.83
76297;BME280;65104;52.994;6.552;2023-04-12T10:01:04;99627.91;;;9.91;97.16
76297;BME280;65104;52.994;6.552;2023-04-12T10:03:33;99637.28;;;9.90;97.82
76297;BME280;65104;52.994;6.552;2023-04-12T10:05:59;99642.44;;;9.84;97.37
76297;BME280;65104;52.994;6.552;2023-04-12T10:08:25;99644.06;;;9.64;97.42
76297;BME280;65104;52.994;6.552;2023-04-12T10:10:53;99637.19;;;9.48;97.66
76297;BME280;65104;52.994;6.552;2023-04-12T10:13:20;99655.13;;;9.55;98.74
76297;BME280;65104;52.994;6.552;2023-04-12T10:15:48;99647.47;;;9.63;98.17
76297;BME280;65104;52.994;6.552;2023-04-12T10:18:16;99641.56;;;9.87;96.64
76297;BME280;65104;52.994;6.552;2023-04-12T10:20:42;99638.22;;;10.41;95.45
76297;BME280;65104;52.994;6.552;2023-04-12T10:23:08;99641.66;;;10.43;93.66
76297;BME280;65104;52.994;6.552;2023-04-12T10:25:37;99640.81;;;10.44;95.50
76297;BME280;65104;52.994;6.552;2023-04-12T10:28:17;99641.66;;;10.46;92.82
76297;BME280;65104;52.994;6.552;2023-04-12T10:30:43;99639.06;;;10.76;94.97
76297;BME280;65104;52.994;6.552;2023-04-12T10:36:00;99627.06;;;10.97;92.05
76297;BME280;65104;52.994;6.552;2023-04-12T10:38:28;99625.34;;;10.96;89.43
76297;BME280;65104;52.994;6.552;2023-04-12T10:43:42;99611.44;;;11.48;88.47
76297;BME280;65104;52.994;6.552;2023-04-12T10:46:07;99612.88;;;12.07;88.92
76297;BME280;65104;52.994;6.552;2023-04-12T10:48:53;99612.59;;;13.26;86.02
76297;BME280;65104;52.994;6.552;2023-04-12T10:51:24;99603.25;;;13.18;78.26
76297;BME280;65104;52.994;6.552;2023-04-12T10:59:00;99614.09;;;12.66;80.96
76297;BME280;65104;52.994;6.552;2023-04-12T11:01:26;99607.44;;;12.44;77.41
76297;BME280;65104;52.994;6.552;2023-04-12T11:07:08;99609.34;;;13.79;73.05
76297;BME280;65104;52.994;6.552;2023-04-12T11:12:21;99588.28;;;14.62;69.06
76297;BME280;65104;52.994;6.552;2023-04-12T11:14:51;99583.66;;;14.78;65.44
76297;BME280;65104;52.994;6.552;2023-04-12T11:19:43;99593.59;;;15.44;67.77
76297;BME280;65104;52.994;6.552;2023-04-12T11:22:13;99581.78;;;14.87;69.99
76297;BME280;65104;52.994;6.552;2023-04-12T11:24:43;99595.56;;;14.37;67.93
76297;BME280;65104;52.994;6.552;2023-04-12T11:27:10;99598.16;;;13.79;69.20
76297;BME280;65104;52.994;6.552;2023-04-12T11:29:36;99590.69;;;13.61;67.74
76297;BME280;65104;52.994;6.552;2023-04-12T11:32:03;99597.91;;;13.97;70.29
76297;BME280;65104;52.994;6.552;2023-04-12T11:34:32;99600.34;;;13.45;69.14
76297;BME280;65104;52.994;6.552;2023-04-12T11:36:58;99598.44;;;12.84;70.50
76297;BME280;65104;52.994;6.552;2023-04-12T11:39:25;99585.91;;;12.51;70.82
76297;BME280;65104;52.994;6.552;2023-04-12T11:41:53;99598.66;;;12.63;71.08
76297;BME280;65104;52.994;6.552;2023-04-12T11:44:19;99596.19;;;12.52;72.12
76297;BME280;65104;52.994;6.552;2023-04-12T11:46:46;99592.16;;;12.25;72.25
76297;BME280;65104;52.994;6.552;2023-04-12T11:49:16;99590.44;;;12.20;73.42
76297;BME280;65104;52.994;6.552;2023-04-12T11:51:42;99590.66;;;11.92;73.02
76297;BME280;65104;52.994;6.552;2023-04-12T11:54:09;99598.47;;;11.76;73.34
76297;BME280;65104;52.994;6.552;2023-04-12T11:56:35;99595.06;;;11.68;70.88
76297;BME280;65104;52.994;6.552;2023-04-12T11:59:01;99595.06;;;11.77;73.39
76297;BME280;65104;52.994;6.552;2023-04-12T12:01:26;99599.25;;;11.90;72.72
76297;BME280;65104;52.994;6.552;2023-04-12T12:03:53;99602.31;;;12.39;68.77
76297;BME280;65104;52.994;6.552;2023-04-12T12:06:19;99600.34;;;12.67;68.81
76297;BME280;65104;52.994;6.552;2023-04-12T12:08:45;99605.50;;;12.67;68.52
76297;BME280;65104;52.994;6.552;2023-04-12T12:11:11;99603.84;;;12.61;64.68
76297;BME280;65104;52.994;6.552;2023-04-12T12:13:47;99604.56;;;12.72;64.67
76297;BME280;65104;52.994;6.552;2023-04-12T12:16:13;99596.81;;;12.75;63.71
76297;BME280;65104;52.994;6.552;2023-04-12T12:18:43;99604.47;;;12.85;65.23
76297;BME280;65104;52.994;6.552;2023-04-12T12:21:12;99605.31;;;12.85;60.48
76297;BME280;65104;52.994;6.552;2023-04-12T12:23:41;99607.59;;;13.12;58.23
76297;BME280;65104;52.994;6.552;2023-04-12T12:26:07;99596.84;;;13.50;57.68
76297;BME280;65104;52.994;6.552;2023-04-12T12:28:36;99596.38;;;13.85;57.65
76297;BME280;65104;52.994;6.552;2023-04-12T12:31:05;99595.97;;;14.11;55.18
76297;BME280;65104;52.994;6.552;2023-04-12T12:33:38;99599.97;;;14.83;53.83
76297;BME280;65104;52.994;6.552;2023-04-12T12:36:05;99592.56;;;15.51;51.10
76297;BME280;65104;52.994;6.552;2023-04-12T12:38:35;99594.19;;;15.13;52.23
76297;BME280;65104;52.994;6.552;2023-04-12T12:43:46;99612.59;;;14.98;48.98
76297;BME280;65104;52.994;6.552;2023-04-12T12:46:12;99609.19;;;14.96;46.71
76297;BME280;65104;52.994;6.552;2023-04-12T12:48:39;99606.34;;;14.63;50.69
76297;BME280;65104;52.994;6.552;2023-04-12T12:51:05;99607.53;;;14.92;53.66
76297;BME280;65104;52.994;6.552;2023-04-12T12:53:30;99606.47;;;15.47;54.50
76297;BME280;65104;52.994;6.552;2023-04-12T12:55:55;99615.81;;;15.11;53.80
76297;BME280;65104;52.994;6.552;2023-04-12T12:58:21;99617.00;;;14.42;50.76
76297;BME280;65104;52.994;6.552;2023-04-12T13:00:46;99613.38;;;13.99;51.50
76297;BME280;65104;52.994;6.552;2023-04-12T13:03:11;99607.63;;;13.78;52.82
76297;BME280;65104;52.994;6.552;2023-04-12T13:05:37;99614.69;;;13.67;50.16
76297;BME280;65104;52.994;6.552;2023-04-12T13:08:02;99614.59;;;13.73;50.43
76297;BME280;65104;52.994;6.552;2023-04-12T13:10:28;99618.72;;;13.86;53.54
76297;BME280;65104;52.994;6.552;2023-04-12T13:12:53;99610.66;;;13.45;49.87
76297;BME280;65104;52.994;6.552;2023-04-12T13:15:18;99610.53;;;13.57;51.93
76297;BME280;65104;52.994;6.552;2023-04-12T13:17:44;99617.66;;;13.37;51.52
76297;BME280;65104;52.994;6.552;2023-04-12T13:20:09;99611.84;;;13.17;53.39
76297;BME280;65104;52.994;6.552;2023-04-12T13:22:35;99620.59;;;13.03;53.83
76297;BME280;65104;52.994;6.552;2023-04-12T13:25:00;99620.84;;;12.77;54.27
76297;BME280;65104;52.994;6.552;2023-04-12T13:27:26;99620.84;;;12.77;54.08
76297;BME280;65104;52.994;6.552;2023-04-12T13:29:51;99621.88;;;12.60;52.60
76297;BME280;65104;52.994;6.552;2023-04-12T13:32:17;99620.88;;;12.76;51.37
76297;BME280;65104;52.994;6.552;2023-04-12T13:34:43;99613.91;;;12.84;51.72
76297;BME280;65104;52.994;6.552;2023-04-12T13:37:08;99608.22;;;13.34;52.43